sensor_id;sensor_type;location;lat;lon;timestamp;pressure;altitude;pressure_sealevel;temperature;humidity
50105;BME280;47690;39.202;-77.198;2022-07-06T00:00:54;99706.88;;;28.66;86.60
50105;BME280;47690;39.202;-77.198;2022-07-06T00:03:26;99706.34;;;28.62;86.85
50105;BME280;47690;39.202;-77.198;2022-07-06T00:06:00;99699.38;;;28.61;86.75
50105;BME280;47690;39.202;-77.198;2022-07-06T00:08:37;99696.88;;;28.59;87.05
50105;BME280;47690;39.202;-77.198;2022-07-06T00:11:15;99698.88;;;28.57;87.41
50105;BME280;47690;39.202;-77.198;2022-07-06T00:13:46;99698.34;;;28.54;87.07
50105;BME280;47690;39.202;-77.198;2022-07-06T00:16:20;99701.13;;;28.52;87.09
50105;BME280;47690;39.202;-77.198;2022-07-06T00:18:53;99696.16;;;28.49;87.13
50105;BME280;47690;39.202;-77.198;2022-07-06T00:21:22;99693.84;;;28.46;87.21
50105;BME280;47690;39.202;-77.198;2022-07-06T00:24:05;99701.06;;;28.44;87.99
50105;BME280;47690;39.202;-77.198;2022-07-06T00:26:34;99690.94;;;28.39;87.58
50105;BME280;47690;39.202;-77.198;2022-07-06T00:29:08;99692.94;;;28.37;87.33
50105;BME280;47690;39.202;-77.198;2022-07-06T00:31:45;99690.56;;;28.34;87.62
50105;BME280;47690;39.202;-77.198;2022-07-06T00:34:17;99695.19;;;28.32;87.63
50105;BME280;47690;39.202;-77.198;2022-07-06T00:36:52;99692.88;;;28.29;87.45
50105;BME280;47690;39.202;-77.198;2022-07-06T00:39:25;99687.03;;;28.25;87.67
50105;BME280;47690;39.202;-77.198;2022-07-06T00:42:01;99684.69;;;28.22;87.80
50105;BME280;47690;39.202;-77.198;2022-07-06T00:44:34;99691.25;;;28.18;87.86
50105;BME280;47690;39.202;-77.198;2022-07-06T00:47:17;99691.53;;;28.15;87.99
50105;BME280;47690;39.202;-77.198;2022-07-06T00:49:53;99687.53;;;28.11;88.11
50105;BME280;47690;39.202;-77.198;2022-07-06T00:52:50;99687.00;;;28.07;88.17
50105;BME280;47690;39.202;-77.198;2022-07-06T00:55:26;99699.72;;;28.03;88.33
50105;BME280;47690;39.202;-77.198;2022-07-06T00:58:05;99700.84;;;28.01;88.32
50105;BME280;47690;39.202;-77.198;2022-07-06T01:00:48;99701.31;;;27.96;88.74
50105;BME280;47690;39.202;-77.198;2022-07-06T01:03:22;99704.41;;;27.91;88.74
50105;BME280;47690;39.202;-77.198;2022-07-06T01:05:54;99703.69;;;27.89;88.63
50105;BME280;47690;39.202;-77.198;2022-07-06T01:08:28;99711.94;;;27.86;88.84
50105;BME280;47690;39.202;-77.198;2022-07-06T01:11:05;99718.38;;;27.84;89.05
50105;BME280;47690;39.202;-77.198;2022-07-06T01:13:47;99718.69;;;27.80;89.31
50105;BME280;47690;39.202;-77.198;2022-07-06T01:16:20;99710.19;;;27.77;89.21
50105;BME280;47690;39.202;-77.198;2022-07-06T01:18:56;99713.13;;;27.74;89.34
50105;BME280;47690;39.202;-77.198;2022-07-06T01:21:26;99714.25;;;27.71;89.65
50105;BME280;47690;39.202;-77.198;2022-07-06T01:24:01;99709.13;;;27.70;89.59
50105;BME280;47690;39.202;-77.198;2022-07-06T01:26:34;99712.06;;;27.66;89.71
50105;BME280;47690;39.202;-77.198;2022-07-06T01:29:34;99722.94;;;27.63;89.66
50105;BME280;47690;39.202;-77.198;2022-07-06T01:32:14;99720.56;;;27.60;89.83
50105;BME280;47690;39.202;-77.198;2022-07-06T01:34:52;99724.38;;;27.58;89.99
50105;BME280;47690;39.202;-77.198;2022-07-06T01:37:25;99718.50;;;27.54;90.04
50105;BME280;47690;39.202;-77.198;2022-07-06T01:40:06;99717.97;;;27.50;90.22
50105;BME280;47690;39.202;-77.198;2022-07-06T01:42:46;99713.81;;;27.48;90.24
50105;BME280;47690;39.202;-77.198;2022-07-06T01:45:20;99713.25;;;27.44;90.41
50105;BME280;47690;39.202;-77.198;2022-07-06T01:47:54;99708.25;;;27.41;90.37
50105;BME280;47690;39.202;-77.198;2022-07-06T01:50:28;99719.00;;;27.39;90.77
50105;BME280;47690;39.202;-77.198;2022-07-06T01:53:00;99716.63;;;27.36;90.69
50105;BME280;47690;39.202;-77.198;2022-07-06T01:55:36;99713.31;;;27.34;91.05
50105;BME280;47690;39.202;-77.198;2022-07-06T01:58:06;99718.88;;;27.31;91.13
50105;BME280;47690;39.202;-77.198;2022-07-06T02:00:45;99719.16;;;27.28;91.07
50105;BME280;47690;39.202;-77.198;2022-07-06T02:03:24;99719.31;;;27.26;91.27
50105;BME280;47690;39.202;-77.198;2022-07-06T02:05:55;99716.28;;;27.21;91.25
50105;BME280;47690;39.202;-77.198;2022-07-06T02:08:26;99719.06;;;27.20;91.41
50105;BME280;47690;39.202;-77.198;2022-07-06T02:10:58;99714.88;;;27.17;91.24
50105;BME280;47690;39.202;-77.198;2022-07-06T02:13:30;99717.66;;;27.16;91.42
50105;BME280;47690;39.202;-77.198;2022-07-06T02:16:13;99713.53;;;27.13;91.55
50105;BME280;47690;39.202;-77.198;2022-07-06T02:18:46;99715.47;;;27.11;91.30
50105;BME280;47690;39.202;-77.198;2022-07-06T02:21:22;99710.34;;;27.09;91.50
50105;BME280;47690;39.202;-77.198;2022-07-06T02:23:54;99706.19;;;27.07;91.54
50105;BME280;47690;39.202;-77.198;2022-07-06T02:26:26;99709.81;;;27.06;91.76
50105;BME280;47690;39.202;-77.198;2022-07-06T02:29:01;99707.28;;;27.04;91.68
50105;BME280;47690;39.202;-77.198;2022-07-06T02:31:33;99711.91;;;27.02;91.89
50105;BME280;47690;39.202;-77.198;2022-07-06T02:34:17;99710.38;;;26.99;91.87
50105;BME280;47690;39.202;-77.198;2022-07-06T02:36:54;99708.00;;;26.96;91.74
50105;BME280;47690;39.202;-77.198;2022-07-06T02:39:28;99698.41;;;26.95;92.00
50105;BME280;47690;39.202;-77.198;2022-07-06T02:42:00;99704.00;;;26.92;91.93
50105;BME280;47690;39.202;-77.198;2022-07-06T02:44:32;99700.78;;;26.89;91.78
50105;BME280;47690;39.202;-77.198;2022-07-06T02:47:04;99702.00;;;26.84;92.08
50105;BME280;47690;39.202;-77.198;2022-07-06T02:50:05;99698.81;;;26.81;91.90
50105;BME280;47690;39.202;-77.198;2022-07-06T02:52:36;99698.28;;;26.77;92.46
50105;BME280;47690;39.202;-77.198;2022-07-06T02:55:16;99700.38;;;26.73;92.33
50105;BME280;47690;39.202;-77.198;2022-07-06T02:57:49;99700.78;;;26.69;92.08
50105;BME280;47690;39.202;-77.198;2022-07-06T03:00:26;99694.97;;;26.65;92.26
50105;BME280;47690;39.202;-77.198;2022-07-06T03:03:01;99700.38;;;26.64;92.56
50105;BME280;47690;39.202;-77.198;2022-07-06T03:05:35;99701.66;;;26.59;92.42
50105;BME280;47690;39.202;-77.198;2022-07-06T03:08:14;99692.88;;;26.59;92.16
50105;BME280;47690;39.202;-77.198;2022-07-06T03:10:45;99685.13;;;26.57;92.07
50105;BME280;47690;39.202;-77.198;2022-07-06T03:13:20;99685.25;;;26.56;92.11
50105;BME280;47690;39.202;-77.198;2022-07-06T03:15:53;99693.31;;;26.54;92.09
50105;BME280;47690;39.202;-77.198;2022-07-06T03:18:24;99696.09;;;26.53;92.41
50105;BME280;47690;39.202;-77.198;2022-07-06T03:21:00;99703.44;;;26.49;92.04
50105;BME280;47690;39.202;-77.198;2022-07-06T03:23:34;99704.59;;;26.47;91.89
50105;BME280;47690;39.202;-77.198;2022-07-06T03:26:13;99706.81;;;26.41;92.09
50105;BME280;47690;39.202;-77.198;2022-07-06T03:28:48;99707.91;;;26.39;92.55
50105;BME280;47690;39.202;-77.198;2022-07-06T03:31:24;99701.94;;;26.37;92.69
50105;BME280;47690;39.202;-77.198;2022-07-06T03:33:54;99695.97;;;26.35;92.74
50105;BME280;47690;39.202;-77.198;2022-07-06T03:36:25;99701.25;;;26.35;93.16
50105;BME280;47690;39.202;-77.198;2022-07-06T03:39:05;99702.09;;;26.35;92.94
50105;BME280;47690;39.202;-77.198;2022-07-06T03:41:45;99704.84;;;26.34;93.09
50105;BME280;47690;39.202;-77.198;2022-07-06T03:44:18;99705.16;;;26.30;92.76
50105;BME280;47690;39.202;-77.198;2022-07-06T03:46:53;99697.34;;;26.29;92.70
50105;BME280;47690;39.202;-77.198;2022-07-06T03:49:26;99698.03;;;26.31;92.76
50105;BME280;47690;39.202;-77.198;2022-07-06T03:52:05;99702.47;;;26.21;92.14
50105;BME280;47690;39.202;-77.198;2022-07-06T03:54:45;99711.78;;;26.15;92.36
50105;BME280;47690;39.202;-77.198;2022-07-06T03:57:29;99705.22;;;26.09;92.50
50105;BME280;47690;39.202;-77.198;2022-07-06T04:00:04;99694.09;;;26.05;92.70
50105;BME280;47690;39.202;-77.198;2022-07-06T04:02:53;99693.41;;;26.03;92.77
50105;BME280;47690;39.202;-77.198;2022-07-06T04:05:28;99702.59;;;25.99;92.64
50105;BME280;47690;39.202;-77.198;2022-07-06T04:08:00;99700.91;;;25.98;93.04
50105;BME280;47690;39.202;-77.198;2022-07-06T04:10:46;99713.53;;;25.95;92.74
50105;BME280;47690;39.202;-77.198;2022-07-06T04:13:17;99717.31;;;25.92;92.87
50105;BME280;47690;39.202;-77.198;2022-07-06T04:15:48;99718.28;;;25.91;93.29
50105;BME280;47690;39.202;-77.198;2022-07-06T04:18:17;99725.47;;;25.89;93.10
50105;BME280;47690;39.202;-77.198;2022-07-06T04:21:15;99726.44;;;25.88;93.44
50105;BME280;47690;39.202;-77.198;2022-07-06T04:23:49;99730.06;;;25.87;93.42
50105;BME280;47690;39.202;-77.198;2022-07-06T04:26:21;99733.69;;;25.86;93.41
50105;BME280;47690;39.202;-77.198;2022-07-06T04:28:58;99732.97;;;25.84;93.60
50105;BME280;47690;39.202;-77.198;2022-07-06T04:31:30;99723.53;;;25.81;93.25
50105;BME280;47690;39.202;-77.198;2022-07-06T04:34:02;99727.16;;;25.80;93.67
50105;BME280;47690;39.202;-77.198;2022-07-06T04:36:34;99729.78;;;25.80;93.40
50105;BME280;47690;39.202;-77.198;2022-07-06T04:39:10;99738.63;;;25.79;93.49
50105;BME280;47690;39.202;-77.198;2022-07-06T04:41:48;99741.44;;;25.77;93.34
50105;BME280;47690;39.202;-77.198;2022-07-06T04:44:22;99735.31;;;25.77;92.93
50105;BME280;47690;39.202;-77.198;2022-07-06T04:46:54;99730.16;;;25.75;92.97
50105;BME280;47690;39.202;-77.198;2022-07-06T04:49:25;99724.06;;;25.75;93.40
50105;BME280;47690;39.202;-77.198;2022-07-06T04:51:57;99725.03;;;25.74;93.22
50105;BME280;47690;39.202;-77.198;2022-07-06T04:54:30;99726.13;;;25.71;92.93
50105;BME280;47690;39.202;-77.198;2022-07-06T04:57:05;99734.19;;;25.70;92.70
50105;BME280;47690;39.202;-77.198;2022-07-06T04:59:46;99736.25;;;25.66;93.00
50105;BME280;47690;39.202;-77.198;2022-07-06T05:02:22;99739.16;;;25.63;92.75
50105;BME280;47690;39.202;-77.198;2022-07-06T05:04:54;99738.44;;;25.61;92.97
50105;BME280;47690;39.202;-77.198;2022-07-06T05:07:25;99732.47;;;25.59;92.96
50105;BME280;47690;39.202;-77.198;2022-07-06T05:09:58;99728.28;;;25.56;92.62
50105;BME280;47690;39.202;-77.198;2022-07-06T05:12:34;99724.84;;;25.56;92.81
50105;BME280;47690;39.202;-77.198;2022-07-06T05:15:09;99724.44;;;25.60;93.01
50105;BME280;47690;39.202;-77.198;2022-07-06T05:17:45;99729.56;;;25.52;93.15
50105;BME280;47690;39.202;-77.198;2022-07-06T05:20:25;99738.53;;;25.49;92.85
50105;BME280;47690;39.202;-77.198;2022-07-06T05:23:01;99728.22;;;25.46;93.10
50105;BME280;47690;39.202;-77.198;2022-07-06T05:25:34;99723.22;;;25.43;93.05
50105;BME280;47690;39.202;-77.198;2022-07-06T05:28:10;99738.19;;;25.43;93.14
50105;BME280;47690;39.202;-77.198;2022-07-06T05:30:45;99746.25;;;25.41;93.08
50105;BME280;47690;39.202;-77.198;2022-07-06T05:33:17;99744.59;;;25.40;92.80
50105;BME280;47690;39.202;-77.198;2022-07-06T05:35:49;99727.94;;;25.40;93.19
50105;BME280;47690;39.202;-77.198;2022-07-06T05:38:28;99729.72;;;25.39;92.84
50105;BME280;47690;39.202;-77.198;2022-07-06T05:41:00;99741.25;;;25.38;92.49
50105;BME280;47690;39.202;-77.198;2022-07-06T05:43:37;99733.59;;;25.35;92.51
50105;BME280;47690;39.202;-77.198;2022-07-06T05:46:18;99724.03;;;25.34;92.34
50105;BME280;47690;39.202;-77.198;2022-07-06T05:48:53;99739.13;;;25.32;92.78
50105;BME280;47690;39.202;-77.198;2022-07-06T05:51:45;99738.31;;;25.31;92.79
50105;BME280;47690;39.202;-77.198;2022-07-06T05:54:17;99740.94;;;25.31;92.23
50105;BME280;47690;39.202;-77.198;2022-07-06T05:56:52;99747.31;;;25.29;92.33
50105;BME280;47690;39.202;-77.198;2022-07-06T05:59:24;99734.53;;;25.24;91.90
50105;BME280;47690;39.202;-77.198;2022-07-06T06:01:56;99720.78;;;25.20;91.74
50105;BME280;47690;39.202;-77.198;2022-07-06T06:04:28;99730.63;;;25.18;92.26
50105;BME280;47690;39.202;-77.198;2022-07-06T06:06:59;99726.44;;;25.16;92.22
50105;BME280;47690;39.202;-77.198;2022-07-06T06:09:34;99732.09;;;25.11;91.95
50105;BME280;47690;39.202;-77.198;2022-07-06T06:12:14;99743.03;;;25.06;92.13
50105;BME280;47690;39.202;-77.198;2022-07-06T06:14:48;99748.09;;;24.98;91.80
50105;BME280;47690;39.202;-77.198;2022-07-06T06:17:20;99749.34;;;24.94;91.96
50105;BME280;47690;39.202;-77.198;2022-07-06T06:19:52;99750.53;;;24.90;92.26
50105;BME280;47690;39.202;-77.198;2022-07-06T06:23:13;99757.47;;;24.91;92.46
50105;BME280;47690;39.202;-77.198;2022-07-06T06:28:01;99749.00;;;24.87;92.03
50105;BME280;47690;39.202;-77.198;2022-07-06T06:30:34;99757.75;;;24.88;92.43
50105;BME280;47690;39.202;-77.198;2022-07-06T06:33:15;99755.81;;;24.90;91.95
50105;BME280;47690;39.202;-77.198;2022-07-06T06:35:53;99757.63;;;24.89;92.27
50105;BME280;47690;39.202;-77.198;2022-07-06T06:38:24;99750.81;;;24.87;92.04
50105;BME280;47690;39.202;-77.198;2022-07-06T06:41:02;99755.38;;;24.85;91.84
50105;BME280;47690;39.202;-77.198;2022-07-06T06:43:34;99768.09;;;24.79;92.11
50105;BME280;47690;39.202;-77.198;2022-07-06T06:46:29;99770.94;;;24.76;92.33
50105;BME280;47690;39.202;-77.198;2022-07-06T06:49:00;99775.38;;;24.76;91.88
50105;BME280;47690;39.202;-77.198;2022-07-06T06:51:33;99774.78;;;24.72;92.30
50105;BME280;47690;39.202;-77.198;2022-07-06T06:54:04;99771.56;;;24.68;91.69
50105;BME280;47690;39.202;-77.198;2022-07-06T06:56:36;99771.00;;;24.65;92.25
50105;BME280;47690;39.202;-77.198;2022-07-06T06:59:16;99757.94;;;24.63;91.83
50105;BME280;47690;39.202;-77.198;2022-07-06T07:01:48;99758.91;;;24.62;92.18
50105;BME280;47690;39.202;-77.198;2022-07-06T07:04:25;99761.66;;;24.61;92.32
50105;BME280;47690;39.202;-77.198;2022-07-06T07:06:56;99766.22;;;24.59;92.35
50105;BME280;47690;39.202;-77.198;2022-07-06T07:09:33;99776.66;;;24.60;92.25
50105;BME280;47690;39.202;-77.198;2022-07-06T07:12:05;99778.31;;;24.61;92.22
50105;BME280;47690;39.202;-77.198;2022-07-06T07:14:36;99768.47;;;24.63;92.20
50105;BME280;47690;39.202;-77.198;2022-07-06T07:17:09;99772.94;;;24.63;91.72
50105;BME280;47690;39.202;-77.198;2022-07-06T07:19:45;99770.41;;;24.61;91.75
50105;BME280;47690;39.202;-77.198;2022-07-06T07:22:17;99760.97;;;24.59;91.58
50105;BME280;47690;39.202;-77.198;2022-07-06T07:24:50;99762.91;;;24.57;91.27
50105;BME280;47690;39.202;-77.198;2022-07-06T07:27:25;99762.19;;;24.54;91.60
50105;BME280;47690;39.202;-77.198;2022-07-06T07:29:57;99756.19;;;24.52;92.13
50105;BME280;47690;39.202;-77.198;2022-07-06T07:32:29;99758.13;;;24.50;91.86
50105;BME280;47690;39.202;-77.198;2022-07-06T07:35:01;99761.72;;;24.49;91.94
50105;BME280;47690;39.202;-77.198;2022-07-06T07:37:33;99760.75;;;24.50;91.88
50105;BME280;47690;39.202;-77.198;2022-07-06T07:40:04;99758.97;;;24.51;92.12
50105;BME280;47690;39.202;-77.198;2022-07-06T07:42:37;99758.97;;;24.51;92.24
50105;BME280;47690;39.202;-77.198;2022-07-06T07:45:16;99760.66;;;24.52;92.21
50105;BME280;47690;39.202;-77.198;2022-07-06T07:47:49;99760.66;;;24.52;92.10
50105;BME280;47690;39.202;-77.198;2022-07-06T07:50:22;99756.34;;;24.51;91.67
50105;BME280;47690;39.202;-77.198;2022-07-06T07:52:54;99740.41;;;24.52;91.14
50105;BME280;47690;39.202;-77.198;2022-07-06T07:55:24;99733.16;;;24.45;92.05
50105;BME280;47690;39.202;-77.198;2022-07-06T07:58:19;99736.75;;;24.44;92.21
50105;BME280;47690;39.202;-77.198;2022-07-06T08:00:54;99743.69;;;24.45;92.03
50105;BME280;47690;39.202;-77.198;2022-07-06T08:03:25;99723.44;;;24.45;91.59
50105;BME280;47690;39.202;-77.198;2022-07-06T08:05:57;99718.31;;;24.44;91.94
50105;BME280;47690;39.202;-77.198;2022-07-06T08:08:29;99706.09;;;24.42;91.95
50105;BME280;47690;39.202;-77.198;2022-07-06T08:11:01;99709.59;;;24.43;92.02
50105;BME280;47690;39.202;-77.198;2022-07-06T08:13:49;99707.81;;;24.44;91.95
50105;BME280;47690;39.202;-77.198;2022-07-06T08:16:22;99699.06;;;24.43;92.03
50105;BME280;47690;39.202;-77.198;2022-07-06T08:18:58;99710.44;;;24.44;91.92
50105;BME280;47690;39.202;-77.198;2022-07-06T08:21:45;99705.16;;;24.44;92.20
50105;BME280;47690;39.202;-77.198;2022-07-06T08:24:18;99711.38;;;24.42;92.07
50105;BME280;47690;39.202;-77.198;2022-07-06T08:26:53;99720.38;;;24.40;91.91
50105;BME280;47690;39.202;-77.198;2022-07-06T08:29:24;99725.75;;;24.38;91.65
50105;BME280;47690;39.202;-77.198;2022-07-06T08:31:54;99736.66;;;24.34;91.24
50105;BME280;47690;39.202;-77.198;2022-07-06T08:34:46;99737.03;;;24.29;90.69
50105;BME280;47690;39.202;-77.198;2022-07-06T08:37:21;99734.06;;;24.22;91.02
50105;BME280;47690;39.202;-77.198;2022-07-06T08:39:56;99742.31;;;24.18;90.96
50105;BME280;47690;39.202;-77.198;2022-07-06T08:42:30;99756.44;;;24.17;91.41
50105;BME280;47690;39.202;-77.198;2022-07-06T08:45:05;99767.94;;;24.16;91.94
50105;BME280;47690;39.202;-77.198;2022-07-06T08:47:49;99781.78;;;24.18;92.23
50105;BME280;47690;39.202;-77.198;2022-07-06T08:50:24;99772.22;;;24.17;92.02
50105;BME280;47690;39.202;-77.198;2022-07-06T08:52:57;99776.53;;;24.18;91.92
50105;BME280;47690;39.202;-77.198;2022-07-06T08:55:29;99773.06;;;24.17;92.02
50105;BME280;47690;39.202;-77.198;2022-07-06T08:58:01;99767.78;;;24.17;92.14
50105;BME280;47690;39.202;-77.198;2022-07-06T09:00:34;99764.06;;;24.20;92.34
50105;BME280;47690;39.202;-77.198;2022-07-06T09:03:14;99782.38;;;24.21;92.08
50105;BME280;47690;39.202;-77.198;2022-07-06T09:05:46;99777.22;;;24.20;92.00
50105;BME280;47690;39.202;-77.198;2022-07-06T09:08:24;99782.50;;;24.20;91.73
50105;BME280;47690;39.202;-77.198;2022-07-06T09:10:59;99778.19;;;24.19;91.80
50105;BME280;47690;39.202;-77.198;2022-07-06T09:13:33;99779.16;;;24.18;91.77
50105;BME280;47690;39.202;-77.198;2022-07-06T09:16:25;99767.66;;;24.19;92.00
50105;BME280;47690;39.202;-77.198;2022-07-06T09:19:16;99772.22;;;24.17;91.95
50105;BME280;47690;39.202;-77.198;2022-07-06T09:21:49;99776.53;;;24.18;92.27
50105;BME280;47690;39.202;-77.198;2022-07-06T09:24:21;99773.91;;;24.18;92.08
50105;BME280;47690;39.202;-77.198;2022-07-06T09:26:58;99773.91;;;24.18;92.10
50105;BME280;47690;39.202;-77.198;2022-07-06T09:29:31;99771.53;;;24.14;92.14
50105;BME280;47690;39.202;-77.198;2022-07-06T09:32:04;99767.34;;;24.12;92.31
50105;BME280;47690;39.202;-77.198;2022-07-06T09:34:46;99769.00;;;24.13;92.09
50105;BME280;47690;39.202;-77.198;2022-07-06T09:37:18;99778.09;;;24.09;91.89
50105;BME280;47690;39.202;-77.198;2022-07-06T09:39:56;99775.59;;;24.07;91.92
50105;BME280;47690;39.202;-77.198;2022-07-06T09:42:27;99777.63;;;24.04;91.93
50105;BME280;47690;39.202;-77.198;2022-07-06T09:44:59;99781.19;;;24.02;92.51
50105;BME280;47690;39.202;-77.198;2022-07-06T09:47:37;99781.19;;;24.02;92.52
50105;BME280;47690;39.202;-77.198;2022-07-06T09:50:17;99800.44;;;24.03;92.51
50105;BME280;47690;39.202;-77.198;2022-07-06T09:52:57;99800.56;;;24.01;92.24
50105;BME280;47690;39.202;-77.198;2022-07-06T09:55:30;99790.28;;;23.98;91.97
50105;BME280;47690;39.202;-77.198;2022-07-06T09:58:02;99783.47;;;23.96;92.02
50105;BME280;47690;39.202;-77.198;2022-07-06T10:00:33;99785.84;;;23.99;92.57
50105;BME280;47690;39.202;-77.198;2022-07-06T10:03:10;99783.94;;;24.01;92.54
50105;BME280;47690;39.202;-77.198;2022-07-06T10:05:50;99790.78;;;24.04;92.82
50105;BME280;47690;39.202;-77.198;2022-07-06T10:08:24;99796.03;;;24.04;92.32
50105;BME280;47690;39.202;-77.198;2022-07-06T10:11:01;99790.88;;;24.02;92.40
50105;BME280;47690;39.202;-77.198;2022-07-06T10:13:51;99797.09;;;24.01;92.35
50105;BME280;47690;39.202;-77.198;2022-07-06T10:16:35;99794.22;;;24.04;92.78
50105;BME280;47690;39.202;-77.198;2022-07-06T10:19:18;99799.28;;;24.07;92.79
50105;BME280;47690;39.202;-77.198;2022-07-06T10:21:53;99803.44;;;24.10;92.62
50105;BME280;47690;39.202;-77.198;2022-07-06T10:24:30;99808.59;;;24.11;92.47
50105;BME280;47690;39.202;-77.198;2022-07-06T10:27:05;99805.59;;;24.16;92.58
50105;BME280;47690;39.202;-77.198;2022-07-06T10:29:45;99814.34;;;24.17;93.02
50105;BME280;47690;39.202;-77.198;2022-07-06T10:32:22;99812.41;;;24.19;92.66
50105;BME280;47690;39.202;-77.198;2022-07-06T10:34:58;99803.53;;;24.20;92.37
50105;BME280;47690;39.202;-77.198;2022-07-06T10:37:37;99799.84;;;24.22;92.23
50105;BME280;47690;39.202;-77.198;2022-07-06T10:40:33;99806.41;;;24.28;92.56
50105;BME280;47690;39.202;-77.198;2022-07-06T10:43:38;99807.13;;;24.30;92.63
50105;BME280;47690;39.202;-77.198;2022-07-06T10:46:18;99799.94;;;24.32;92.79
50105;BME280;47690;39.202;-77.198;2022-07-06T10:48:53;99800.53;;;24.36;92.37
50105;BME280;47690;39.202;-77.198;2022-07-06T10:51:29;99802.91;;;24.39;92.53
50105;BME280;47690;39.202;-77.198;2022-07-06T10:54:05;99814.03;;;24.42;92.49
50105;BME280;47690;39.202;-77.198;2022-07-06T10:56:47;99807.69;;;24.45;92.58
50105;BME280;47690;39.202;-77.198;2022-07-06T10:59:24;99810.91;;;24.49;92.34
50105;BME280;47690;39.202;-77.198;2022-07-06T11:02:21;99806.94;;;24.54;92.00
50105;BME280;47690;39.202;-77.198;2022-07-06T11:04:57;99810.28;;;24.57;91.94
50105;BME280;47690;39.202;-77.198;2022-07-06T11:07:49;99815.06;;;24.63;91.58
50105;BME280;47690;39.202;-77.198;2022-07-06T11:10:22;99827.97;;;24.66;91.64
50105;BME280;47690;39.202;-77.198;2022-07-06T11:13:01;99820.66;;;24.69;91.98
50105;BME280;47690;39.202;-77.198;2022-07-06T11:15:50;99817.75;;;24.73;91.46
50105;BME280;47690;39.202;-77.198;2022-07-06T11:18:23;99821.22;;;24.73;91.49
50105;BME280;47690;39.202;-77.198;2022-07-06T11:23:50;99816.75;;;24.96;90.75
50105;BME280;47690;39.202;-77.198;2022-07-06T11:26:25;99816.75;;;24.96;90.80
50105;BME280;47690;39.202;-77.198;2022-07-06T11:29:20;99829.53;;;25.01;91.40
50105;BME280;47690;39.202;-77.198;2022-07-06T11:31:58;99821.25;;;25.06;91.30
50105;BME280;47690;39.202;-77.198;2022-07-06T11:34:43;99813.78;;;25.11;90.98
50105;BME280;47690;39.202;-77.198;2022-07-06T11:37:21;99804.81;;;25.14;90.98
50105;BME280;47690;39.202;-77.198;2022-07-06T11:40:06;99822.84;;;25.18;91.30
50105;BME280;47690;39.202;-77.198;2022-07-06T11:42:56;99812.75;;;25.23;90.82
50105;BME280;47690;39.202;-77.198;2022-07-06T11:45:26;99814.34;;;25.36;90.08
50105;BME280;47690;39.202;-77.198;2022-07-06T11:48:17;99816.41;;;25.32;90.03
50105;BME280;47690;39.202;-77.198;2022-07-06T11:51:04;99823.22;;;25.35;90.40
50105;BME280;47690;39.202;-77.198;2022-07-06T11:53:37;99821.41;;;25.35;90.46
50105;BME280;47690;39.202;-77.198;2022-07-06T11:56:17;99821.97;;;25.39;90.31
50105;BME280;47690;39.202;-77.198;2022-07-06T11:58:59;99823.41;;;25.43;90.26
50105;BME280;47690;39.202;-77.198;2022-07-06T12:01:31;99828.56;;;25.45;90.40
50105;BME280;47690;39.202;-77.198;2022-07-06T12:04:16;99821.22;;;25.48;90.66
50105;BME280;47690;39.202;-77.198;2022-07-06T12:06:50;99827.31;;;25.49;90.04
50105;BME280;47690;39.202;-77.198;2022-07-06T12:09:22;99833.44;;;25.49;90.41
50105;BME280;47690;39.202;-77.198;2022-07-06T12:11:54;99835.97;;;25.51;89.93
50105;BME280;47690;39.202;-77.198;2022-07-06T12:14:31;99823.38;;;25.55;89.71
50105;BME280;47690;39.202;-77.198;2022-07-06T12:17:11;99817.56;;;25.61;90.13
50105;BME280;47690;39.202;-77.198;2022-07-06T12:19:53;99821.22;;;25.70;89.84
50105;BME280;47690;39.202;-77.198;2022-07-06T12:22:29;99812.09;;;25.74;89.66
50105;BME280;47690;39.202;-77.198;2022-07-06T12:25:01;99802.09;;;25.77;89.62
50105;BME280;47690;39.202;-77.198;2022-07-06T12:27:37;99801.81;;;25.81;89.46
50105;BME280;47690;39.202;-77.198;2022-07-06T12:30:17;99803.34;;;25.83;89.17
50105;BME280;47690;39.202;-77.198;2022-07-06T12:36:16;99815.06;;;25.90;89.15
50105;BME280;47690;39.202;-77.198;2022-07-06T12:39:15;99820.31;;;25.90;88.76
50105;BME280;47690;39.202;-77.198;2022-07-06T12:42:04;99812.44;;;26.00;88.76
50105;BME280;47690;39.202;-77.198;2022-07-06T12:44:52;99818.16;;;26.15;88.74
50105;BME280;47690;39.202;-77.198;2022-07-06T12:47:30;99813.38;;;26.30;88.80
50105;BME280;47690;39.202;-77.198;2022-07-06T12:50:05;99815.50;;;26.47;87.97
50105;BME280;47690;39.202;-77.198;2022-07-06T12:52:38;99808.84;;;26.62;87.42
50105;BME280;47690;39.202;-77.198;2022-07-06T12:55:30;99822.72;;;26.84;87.47
50105;BME280;47690;39.202;-77.198;2022-07-06T12:58:22;99828.19;;;27.02;84.93
50105;BME280;47690;39.202;-77.198;2022-07-06T13:01:01;99822.72;;;27.13;85.41
50105;BME280;47690;39.202;-77.198;2022-07-06T13:03:58;99814.34;;;27.28;83.98
50105;BME280;47690;39.202;-77.198;2022-07-06T13:06:35;99814.59;;;27.35;84.27
50105;BME280;47690;39.202;-77.198;2022-07-06T13:09:17;99818.22;;;27.34;83.74
50105;BME280;47690;39.202;-77.198;2022-07-06T13:11:57;99813.66;;;27.36;83.97
50105;BME280;47690;39.202;-77.198;2022-07-06T13:14:31;99821.97;;;27.41;84.00
50105;BME280;47690;39.202;-77.198;2022-07-06T13:17:05;99821.81;;;27.43;83.80
50105;BME280;47690;39.202;-77.198;2022-07-06T13:19:46;99821.81;;;27.43;83.44
50105;BME280;47690;39.202;-77.198;2022-07-06T13:22:18;99819.88;;;27.45;83.52
50105;BME280;47690;39.202;-77.198;2022-07-06T13:24:50;99813.03;;;27.52;83.39
50105;BME280;47690;39.202;-77.198;2022-07-06T13:27:30;99806.19;;;27.49;82.85
50105;BME280;47690;39.202;-77.198;2022-07-06T13:30:20;99803.97;;;27.54;82.89
50105;BME280;47690;39.202;-77.198;2022-07-06T13:32:58;99811.59;;;27.67;82.58
50105;BME280;47690;39.202;-77.198;2022-07-06T13:35:30;99804.16;;;27.81;82.66
50105;BME280;47690;39.202;-77.198;2022-07-06T13:38:05;99801.88;;;27.96;82.32